Terminal Aerodrome Forecast
Issued by NWS Northern Indiana

Home | Current Version | Previous Version | Text Only | Print | Product List | Glossary Off
Versions: 1 2 3 4 5 6 7 8 9 10 11 12 13 14

529
FTUS43 KIWX 270524
TAFFWA
TAF
KFWA 270524Z 2706/2806 24007KT P6SM -DZ SCT015 OVC035
     FM270800 24006KT P6SM BKN015
     FM271600 22006KT P6SM BKN035
     FM271900 19006KT P6SM OVC040
     FM272100 15007KT P6SM VCSH OVC040
     FM280000 09005KT 4SM SHRA BR OVC050
     FM280200 07005KT 1 1/2SM SHRA BR OVC015=

USA.gov is the U.S. government's official web portal to all federal, state and local government web resources and services.